This is the latest recevied weather packets stored in our database for station/object YO6RK-13. If no packets are shown the sender has not sent any weather packets the latest 10 day(s).
| Time | Temp. | Humidity | Pressure | Rain* | Wind** | Luminosity | Snow |
|---|---|---|---|---|---|---|---|
| 1777954817 | 7.22° C | 82% | 1015.1 hPa | 0 mm | - | - | - |
| 1777951526 | 6.11° C | 85% | 1014.8 hPa | 0 mm | - | - | - |
| 1777950323 | 5.56° C | 86% | 1014.6 hPa | 0 mm | - | - | - |
| 1777944628 | 6.11° C | 85% | 1014.4 hPa | 0 mm | - | - | - |
| 1777944027 | 6.11° C | 84% | 1014.4 hPa | 0 mm | - | - | - |
| 1777941019 | 6.67° C | 82% | 1014.3 hPa | 0 mm | - | - | - |
| 1777939221 | 6.67° C | 82% | 1014.2 hPa | 0 mm | - | - | - |
| 1777938622 | 6.67° C | 82% | 1014 hPa | 0 mm | - | - | - |
| 1777937125 | 7.78° C | 80% | 1014.2 hPa | 0 mm | - | - | - |
| 1777935025 | 8.33° C | 77% | 1014.1 hPa | 0 mm | - | - | - |
| 1777931124 | 8.89° C | 75% | 1014.2 hPa | 0 mm | - | - | - |
| 1777926928 | 10° C | 78% | 1014 hPa | 0 mm | - | - | - |
| 1777922423 | 13.33° C | 73% | 1013.8 hPa | 0 mm | - | - | - |
| 1777921212 | 13.89° C | 73% | 1013.7 hPa | 0 mm | - | - | - |
| 1777917009 | 16.11° C | 60% | 1013.1 hPa | 0 mm | - | - | - |
| 1777913435 | 20° C | 39% | 1012.8 hPa | 0 mm | - | - | - |
| 1777912221 | 20.56° C | 44% | 1012.6 hPa | 0 mm | - | - | - |
| 1777911638 | 20.56° C | 40% | 1012.6 hPa | 0 mm | - | - | - |
| 1777909833 | 18.89° C | 51% | 1012.4 hPa | 0 mm | - | - | - |
| 1777909248 | 19.44° C | 52% | 1012.4 hPa | 0 mm | - | - | - |
| 1777906222 | 20° C | 56% | 1012.7 hPa | 0 mm | - | - | - |
| 1777905019 | 21.11° C | 40% | 1012.6 hPa | 0 mm | - | - | - |
| 1777902623 | 21.11° C | 39% | 1013.1 hPa | 0 mm | - | - | - |
| 1777902330 | 21.11° C | 39% | 1013.1 hPa | 0 mm | - | - | - |
| 1777899031 | 21.67° C | 41% | 1013.5 hPa | 0 mm | - | - | - |
* Rain latest hour (hover to see other rain measurements)
** Current wind speed in m/s (hover to see current wind gust speed)